Time;durP1;ratioP1;P1;durP2;ratioP2;P2;SDS_P1;SDS_P2;PMS_P1;PMS_P2;Temp;Humidity;BMP_temperature;BMP_pressure;BME280_temperature;BME280_humidity;BME280_pressure;Samples;Min_cycle;Max_cycle;Signal;HPM_P1;HPM_P2
2021/12/11 00:02:12;;;;;;;;;;;;;;;;;;110796;1276;7950;-73
2021/12/11 00:04:43;;;;;;;;;;;;;;;;;;110780;1277;8923;-73
2021/12/11 00:07:15;;;;;;;;;;;;;;;;;;110823;1277;9709;-73
2021/12/11 00:09:53;;;;;;;;;;;;;;;;;;110771;1277;9724;-73
2021/12/11 00:12:25;;;;;;;;;;;;;;;;;;110450;1276;9079;-73
2021/12/11 00:15:13;;;;;;;;;;;;;;;;;;110772;1276;8011;-73
2021/12/11 00:17:41;;;;;;;;;;;;;;;;;;110444;1274;9028;-73
2021/12/11 00:20:21;;;;;;;;;;;;;;;;;;110776;1275;7984;-72
2021/12/11 00:22:48;;;;;;;;;;;;;;;;;;110459;1277;9690;-75
2021/12/11 00:25:19;;;;;;;;;;;;;;;;;;110781;1277;8771;-73
2021/12/11 00:27:49;;;;;;;;;;;;;;;;;;110474;1277;8014;-73
2021/12/11 00:30:23;;;;;;;;;;;;;;;;;;110797;1277;9704;-72
2021/12/11 00:32:58;;;;;;;;;;;;;;;;;;110790;1277;9441;-73
2021/12/11 00:35:26;;;;;;;;;;;;;;;;;;110401;1278;9044;-73
2021/12/11 00:38:03;;;;;;;;;;;;;;;;;;110465;1277;9694;-73
2021/12/11 00:40:33;;;;;;;;;;;;;;;;;;110368;1279;8800;-72
2021/12/11 00:43:04;;;;;;;;;;;;;;;;;;110627;1276;9800;-72
2021/12/11 00:45:37;;;;;;;;;;;;;;;;;;110611;1275;8848;-73
2021/12/11 00:48:14;;;;;;;;;;;;;;;;;;110198;1279;8375;-73
2021/12/11 00:50:48;;;;;;;;;;;;;;;;;;110733;1277;8880;-72
2021/12/11 00:53:15;;;;;;;;;;;;;;;;;;110556;1276;8791;-72
2021/12/11 00:55:46;;;;;;;;;;;;;;;;;;110975;1276;8380;-72
2021/12/11 00:58:25;;;;;;;;;;;;;;;;;;110602;1277;8938;-73
2021/12/11 01:01:05;;;;;;;;;;;;;;;;;;110912;1276;9687;-73
2021/12/11 01:03:38;;;;;;;;;;;;;;;;;;110953;1276;8784;-73
2021/12/11 01:06:13;;;;;;;;;;;;;;;;;;110842;1274;8768;-73
2021/12/11 01:08:55;;;;;;;;;;;;;;;;;;110809;1277;8933;-72
2021/12/11 01:11:41;;;;;;;;;;;;;;;;;;110446;1277;8099;-73
2021/12/11 01:14:32;;;;;;;;;;;;;;;;;;110778;1277;9784;-73
2021/12/11 01:17:13;;;;;;;;;;;;;;;;;;110798;1275;9736;-72
2021/12/11 01:19:45;;;;;;;;;;;;;;;;;;110559;1276;8060;-73
2021/12/11 01:22:33;;;;;;;;;;;;;;;;;;110464;1278;8926;-73
2021/12/11 01:25:11;;;;;;;;;;;;;;;;;;110620;1276;9704;-74
2021/12/11 01:27:41;;;;;;;;;;;;;;;;;;110920;1276;9690;-74
2021/12/11 01:30:14;;;;;;;;;;;;;;;;;;110937;1276;8922;-74
2021/12/11 01:32:41;;;;;;;;;;;;;;;;;;110939;1275;9048;-73
2021/12/11 01:35:12;;;;;;;;;;;;;;;;;;110948;1275;9690;-72
2021/12/11 01:37:40;;;;;;;;;;;;;;;;;;110227;1277;8036;-73
2021/12/11 01:40:10;;;;;;;;;;;;;;;;;;110941;1276;8805;-73
2021/12/11 01:42:40;;;;;;;;;;;;;;;;;;110954;1275;9714;-73
2021/12/11 01:45:11;;;;;;;;;;;;;;;;;;110954;1276;7960;-73
2021/12/11 01:47:41;;;;;;;;;;;;;;;;;;110519;1276;9677;-73
2021/12/11 01:50:12;;;;;;;;;;;;;;;;;;110950;1276;8756;-73
2021/12/11 01:52:47;;;;;;;;;;;;;;;;;;110957;1276;7963;-73
2021/12/11 01:55:35;;;;;;;;;;;;;;;;;;110953;1276;8744;-73
2021/12/11 01:58:06;;;;;;;;;;;;;;;;;;110443;1277;8170;-74
2021/12/11 02:00:41;;;;;;;;;;;;;;;;;;110798;1276;9703;-74
2021/12/11 02:03:13;;;;;;;;;;;;;;;;;;110571;1275;9565;-73
2021/12/11 02:05:41;;;;;;;;;;;;;;;;;;110837;1276;8927;-72
2021/12/11 02:08:15;;;;;;;;;;;;;;;;;;110938;1276;8943;-73
2021/12/11 02:10:46;;;;;;;;;;;;;;;;;;110938;1275;9083;-73
2021/12/11 02:13:23;;;;;;;;;;;;;;;;;;110921;1275;8288;-74
2021/12/11 02:15:53;;;;;;;;;;;;;;;;;;110948;1276;9704;-73
2021/12/11 02:18:23;;;;;;;;;;;;;;;;;;110962;1276;9693;-73
2021/12/11 02:20:58;;;;;;;;;;;;;;;;;;110818;1275;7980;-73
2021/12/11 02:23:27;;;;;;;;;;;;;;;;;;110804;1275;9703;-73
2021/12/11 02:26:00;;;;;;;;;;;;;;;;;;110794;1277;8019;-73
2021/12/11 02:28:36;;;;;;;;;;;;;;;;;;110814;1276;8802;-73
2021/12/11 02:31:14;;;;;;;;;;;;;;;;;;110458;1277;9697;-73
2021/12/11 02:34:08;;;;;;;;;;;;;;;;;;110812;1276;8771;-73
2021/12/11 02:36:45;;;;;;;;;;;;;;;;;;110601;1277;8804;-72
2021/12/11 02:39:32;;;;;;;;;;;;;;;;;;110950;1276;9701;-73
2021/12/11 02:42:10;;;;;;;;;;;;;;;;;;110987;1276;8086;-72
2021/12/11 02:44:55;;;;;;;;;;;;;;;;;;110839;1276;8772;-73
2021/12/11 02:47:44;;;;;;;;;;;;;;;;;;110549;1276;9690;-73
2021/12/11 02:50:32;;;;;;;;;;;;;;;;;;110895;1276;8880;-73
2021/12/11 02:53:13;;;;;;;;;;;;;;;;;;110961;1276;8756;-73
2021/12/11 02:55:59;;;;;;;;;;;;;;;;;;110530;1277;8318;-73
2021/12/11 02:58:31;;;;;;;;;;;;;;;;;;110819;1277;8957;-73
2021/12/11 03:01:05;;;;;;;;;;;;;;;;;;110771;1277;8371;-73
2021/12/11 03:03:40;;;;;;;;;;;;;;;;;;110788;1277;8924;-73
2021/12/11 03:06:19;;;;;;;;;;;;;;;;;;110201;1278;8903;-73
2021/12/11 03:08:51;;;;;;;;;;;;;;;;;;110804;1277;7982;-74
2021/12/11 03:11:22;;;;;;;;;;;;;;;;;;110792;1277;9666;-73
2021/12/11 03:13:52;;;;;;;;;;;;;;;;;;110519;1276;9692;-73
2021/12/11 03:16:22;;;;;;;;;;;;;;;;;;110827;1276;8785;-74
2021/12/11 03:18:51;;;;;;;;;;;;;;;;;;110977;1274;9690;-75
2021/12/11 03:21:20;;;;;;;;;;;;;;;;;;110974;1275;7960;-74
2021/12/11 03:23:48;;;;;;;;;;;;;;;;;;110954;1274;8781;-74
2021/12/11 03:26:16;;;;;;;;;;;;;;;;;;110453;1277;8057;-74
2021/12/11 03:28:44;;;;;;;;;;;;;;;;;;110248;1279;8005;-74
2021/12/11 03:31:14;;;;;;;;;;;;;;;;;;110496;1279;9789;-74
2021/12/11 03:33:49;;;;;;;;;;;;;;;;;;110867;1276;8911;-74
2021/12/11 03:36:19;;;;;;;;;;;;;;;;;;110976;1276;9687;-74
2021/12/11 03:38:51;;;;;;;;;;;;;;;;;;110922;1276;8784;-74
2021/12/11 03:41:20;;;;;;;;;;;;;;;;;;110812;1277;8988;-74
2021/12/11 03:43:49;;;;;;;;;;;;;;;;;;110882;1276;9694;-74
2021/12/11 03:46:19;;;;;;;;;;;;;;;;;;110521;1277;9153;-74
2021/12/11 03:48:52;;;;;;;;;;;;;;;;;;110942;1275;8784;-74
2021/12/11 03:51:23;;;;;;;;;;;;;;;;;;110790;1275;8369;-74
2021/12/11 03:53:51;;;;;;;;;;;;;;;;;;110836;1277;8759;-74
2021/12/11 03:56:20;;;;;;;;;;;;;;;;;;110437;1275;9706;-74
2021/12/11 03:58:50;;;;;;;;;;;;;;;;;;110768;1275;8020;-73
2021/12/11 04:01:25;;;;;;;;;;;;;;;;;;110779;1277;8940;-73
2021/12/11 04:03:59;;;;;;;;;;;;;;;;;;110782;1276;8781;-73
2021/12/11 04:06:28;;;;;;;;;;;;;;;;;;110547;1276;9533;-72
2021/12/11 04:09:04;;;;;;;;;;;;;;;;;;110890;1275;9709;-73
2021/12/11 04:11:34;;;;;;;;;;;;;;;;;;110555;1277;9051;-73
2021/12/11 04:14:09;;;;;;;;;;;;;;;;;;110521;1277;9658;-73
2021/12/11 04:16:37;;;;;;;;;;;;;;;;;;110807;1275;8771;-74
2021/12/11 04:19:06;;;;;;;;;;;;;;;;;;110812;1276;9694;-74
2021/12/11 04:21:34;;;;;;;;;;;;;;;;;;110821;1275;7970;-73
2021/12/11 04:24:04;;;;;;;;;;;;;;;;;;110560;1276;8942;-73
2021/12/11 04:26:32;;;;;;;;;;;;;;;;;;110948;1274;8864;-73
2021/12/11 04:29:01;;;;;;;;;;;;;;;;;;110152;1279;9735;-72
2021/12/11 04:31:31;;;;;;;;;;;;;;;;;;110897;1274;7979;-75
2021/12/11 04:34:02;;;;;;;;;;;;;;;;;;110914;1275;9687;-73
2021/12/11 04:36:33;;;;;;;;;;;;;;;;;;110808;1275;8041;-76
2021/12/11 04:39:03;;;;;;;;;;;;;;;;;;110760;1277;8924;-72
2021/12/11 04:41:38;;;;;;;;;;;;;;;;;;110381;1275;153544;-73
2021/12/11 04:44:14;;;;;;;;;;;;;;;;;;110784;1277;8769;-73
2021/12/11 04:46:43;;;;;;;;;;;;;;;;;;110454;1279;9696;-72
2021/12/11 04:49:23;;;;;;;;;;;;;;;;;;110468;1279;8377;-73
2021/12/11 04:52:03;;;;;;;;;;;;;;;;;;110458;1277;9711;-73
2021/12/11 05:10:53;;;;;;;;;;;;;;;;;;110955;1274;9702;-73
2021/12/11 05:13:23;;;;;;;;;;;;;;;;;;110472;1278;8049;-73
2021/12/11 05:15:52;;;;;;;;;;;;;;;;;;110813;1277;8866;-72
2021/12/11 05:18:25;;;;;;;;;;;;;;;;;;110479;1277;9760;-72
2021/12/11 05:20:57;;;;;;;;;;;;;;;;;;110804;1277;9708;-73
2021/12/11 05:23:25;;;;;;;;;;;;;;;;;;110487;1276;9694;-72
2021/12/11 05:25:53;;;;;;;;;;;;;;;;;;110438;1278;8362;-74
2021/12/11 05:28:22;;;;;;;;;;;;;;;;;;110465;1278;9801;-73
2021/12/11 05:30:51;;;;;;;;;;;;;;;;;;110499;1278;8028;-72
2021/12/11 05:33:20;;;;;;;;;;;;;;;;;;110269;1279;8791;-74
2021/12/11 05:35:49;;;;;;;;;;;;;;;;;;110800;1277;9705;-74
2021/12/11 05:38:19;;;;;;;;;;;;;;;;;;110800;1276;8376;-73
2021/12/11 05:40:50;;;;;;;;;;;;;;;;;;110940;1276;9701;-73
2021/12/11 05:43:20;;;;;;;;;;;;;;;;;;110469;1277;9705;-73
2021/12/11 05:45:48;;;;;;;;;;;;;;;;;;110786;1277;8376;-73
2021/12/11 05:48:16;;;;;;;;;;;;;;;;;;110772;1277;9700;-73
2021/12/11 05:50:47;;;;;;;;;;;;;;;;;;110522;1279;8926;-73
2021/12/11 05:53:16;;;;;;;;;;;;;;;;;;110947;1276;8017;-73
2021/12/11 05:55:47;;;;;;;;;;;;;;;;;;110486;1278;8916;-73
2021/12/11 05:58:24;;;;;;;;;;;;;;;;;;110493;1277;9698;-73
2021/12/11 06:00:53;;;;;;;;;;;;;;;;;;110883;1274;8770;-73
2021/12/11 06:03:21;;;;;;;;;;;;;;;;;;110789;1274;9720;-73
2021/12/11 06:05:49;;;;;;;;;;;;;;;;;;110795;1276;8372;-73
2021/12/11 06:08:17;;;;;;;;;;;;;;;;;;110967;1276;8794;-74
2021/12/11 06:10:47;;;;;;;;;;;;;;;;;;110952;1276;8008;-73
2021/12/11 06:13:16;;;;;;;;;;;;;;;;;;110801;1277;9691;-72
2021/12/11 06:15:44;;;;;;;;;;;;;;;;;;110770;1277;9860;-72
2021/12/11 06:18:17;;;;;;;;;;;;;;;;;;110946;1276;8012;-74
2021/12/11 06:20:47;;;;;;;;;;;;;;;;;;110518;1276;8005;-74
2021/12/11 06:23:17;;;;;;;;;;;;;;;;;;110819;1276;9693;-74
2021/12/11 06:25:45;;;;;;;;;;;;;;;;;;110459;1278;9702;-74
2021/12/11 06:28:13;;;;;;;;;;;;;;;;;;110782;1277;8359;-73
2021/12/11 06:30:41;;;;;;;;;;;;;;;;;;110838;1275;9698;-73
2021/12/11 06:33:09;;;;;;;;;;;;;;;;;;110490;1277;8360;-74
2021/12/11 06:35:41;;;;;;;;;;;;;;;;;;110790;1276;9757;-73
2021/12/11 06:38:12;;;;;;;;;;;;;;;;;;110489;1276;8025;-72
2021/12/11 06:40:40;;;;;;;;;;;;;;;;;;110612;1276;9252;-75
2021/12/11 06:43:09;;;;;;;;;;;;;;;;;;110735;1276;8034;-73
2021/12/11 06:45:38;;;;;;;;;;;;;;;;;;110886;1276;9689;-75
2021/12/11 06:48:06;;;;;;;;;;;;;;;;;;110489;1278;9705;-74
2021/12/11 06:50:34;;;;;;;;;;;;;;;;;;110856;1276;8084;-73
2021/12/11 06:53:08;;;;;;;;;;;;;;;;;;110436;1279;9833;-73
2021/12/11 06:55:36;;;;;;;;;;;;;;;;;;110779;1277;8005;-73
2021/12/11 06:58:05;;;;;;;;;;;;;;;;;;110550;1276;9025;-73
2021/12/11 07:00:33;;;;;;;;;;;;;;;;;;110938;1276;9698;-73
2021/12/11 07:03:01;;;;;;;;;;;;;;;;;;110532;1277;8375;-74
2021/12/11 07:05:29;;;;;;;;;;;;;;;;;;110787;1277;9994;-75
2021/12/11 07:07:58;;;;;;;;;;;;;;;;;;110722;1277;8415;-75
2021/12/11 07:10:26;;;;;;;;;;;;;;;;;;110717;1276;9018;-75
2021/12/11 07:12:58;;;;;;;;;;;;;;;;;;110766;1277;9733;-77
2021/12/11 07:15:26;;;;;;;;;;;;;;;;;;110909;1275;8368;-74
2021/12/11 07:17:54;;;;;;;;;;;;;;;;;;110287;1277;8939;-75
2021/12/11 07:20:28;;;;;;;;;;;;;;;;;;110467;1277;8784;-73
2021/12/11 07:22:57;;;;;;;;;;;;;;;;;;110755;1275;9703;-75
2021/12/11 07:25:48;;;;;;;;;;;;;;;;;;110859;1275;7955;-74
2021/12/11 07:28:17;;;;;;;;;;;;;;;;;;110806;1276;8784;-73
2021/12/11 07:30:47;;;;;;;;;;;;;;;;;;110771;1277;9727;-73
2021/12/11 07:33:15;;;;;;;;;;;;;;;;;;110777;1277;8012;-73
2021/12/11 07:35:45;;;;;;;;;;;;;;;;;;110877;1276;9690;-74
2021/12/11 07:38:14;;;;;;;;;;;;;;;;;;110958;1274;9212;-74
2021/12/11 07:40:44;;;;;;;;;;;;;;;;;;110901;1276;8801;-74
2021/12/11 07:43:13;;;;;;;;;;;;;;;;;;110785;1276;8799;-78
2021/12/11 07:45:48;;;;;;;;;;;;;;;;;;110745;1276;8011;-75
2021/12/11 07:48:16;;;;;;;;;;;;;;;;;;110800;1276;7978;-74
2021/12/11 07:50:45;;;;;;;;;;;;;;;;;;110758;1276;9709;-76
2021/12/11 07:53:14;;;;;;;;;;;;;;;;;;110808;1274;8771;-75
2021/12/11 07:55:43;;;;;;;;;;;;;;;;;;110779;1275;8372;-74
2021/12/11 07:58:11;;;;;;;;;;;;;;;;;;110890;1275;9710;-75
2021/12/11 08:00:41;;;;;;;;;;;;;;;;;;110253;1277;9713;-75
2021/12/11 08:03:12;;;;;;;;;;;;;;;;;;110399;1276;9488;-76
2021/12/11 08:05:45;;;;;;;;;;;;;;;;;;110530;1277;9691;-79
2021/12/11 08:08:15;;;;;;;;;;;;;;;;;;110238;1274;8021;-76
2021/12/11 08:10:47;;;;;;;;;;;;;;;;;;110716;1274;8842;-72
2021/12/11 08:13:16;;;;;;;;;;;;;;;;;;110767;1277;8424;-73
2021/12/11 08:15:45;;;;;;;;;;;;;;;;;;110794;1277;9702;-73
2021/12/11 08:18:14;;;;;;;;;;;;;;;;;;110788;1277;9734;-73
2021/12/11 08:20:47;;;;;;;;;;;;;;;;;;110764;1275;9702;-75
2021/12/11 08:23:16;;;;;;;;;;;;;;;;;;110894;1275;9709;-73
2021/12/11 08:25:47;;;;;;;;;;;;;;;;;;110914;1276;7995;-75
2021/12/11 08:28:20;;;;;;;;;;;;;;;;;;110624;1275;8938;-77
2021/12/11 08:30:50;;;;;;;;;;;;;;;;;;110521;1276;8961;-75
2021/12/11 08:33:18;;;;;;;;;;;;;;;;;;110763;1276;9704;-72
2021/12/11 08:35:46;;;;;;;;;;;;;;;;;;110578;1275;8777;-73
2021/12/11 08:38:17;;;;;;;;;;;;;;;;;;110224;1279;9694;-71
2021/12/11 08:40:49;;;;;;;;;;;;;;;;;;110774;1276;8057;-72
2021/12/11 08:43:20;;;;;;;;;;;;;;;;;;110435;1279;8952;-73
2021/12/11 08:46:01;;;;;;;;;;;;;;;;;;110453;1277;8700;-77
2021/12/11 08:48:31;;;;;;;;;;;;;;;;;;110843;1276;9807;-74
2021/12/11 08:51:04;;;;;;;;;;;;;;;;;;110958;1276;8374;-72
2021/12/11 08:53:32;;;;;;;;;;;;;;;;;;110789;1277;7984;-72
2021/12/11 08:56:00;;;;;;;;;;;;;;;;;;110796;1277;9694;-72
2021/12/11 08:58:28;;;;;;;;;;;;;;;;;;110813;1277;9064;-72
2021/12/11 09:00:59;;;;;;;;;;;;;;;;;;110786;1275;7967;-72
2021/12/11 09:03:35;;;;;;;;;;;;;;;;;;110793;1274;8785;-72
2021/12/11 09:06:12;;;;;;;;;;;;;;;;;;110785;1277;8185;-72
2021/12/11 09:08:50;;;;;;;;;;;;;;;;;;110762;1277;8871;-72
2021/12/11 09:11:24;;;;;;;;;;;;;;;;;;110222;1279;8119;-72
2021/12/11 09:14:06;;;;;;;;;;;;;;;;;;110577;1277;8836;-72
2021/12/11 09:16:44;;;;;;;;;;;;;;;;;;110763;1277;8161;-72
2021/12/11 09:19:12;;;;;;;;;;;;;;;;;;110781;1277;8153;-71
2021/12/11 09:21:50;;;;;;;;;;;;;;;;;;110769;1275;8940;-73
2021/12/11 09:24:28;;;;;;;;;;;;;;;;;;110795;1277;9713;-71
2021/12/11 09:26:59;;;;;;;;;;;;;;;;;;110796;1277;8012;-72
2021/12/11 09:29:34;;;;;;;;;;;;;;;;;;110804;1277;8924;-72
2021/12/11 09:32:13;;;;;;;;;;;;;;;;;;110440;1278;8807;-72
2021/12/11 09:35:01;;;;;;;;;;;;;;;;;;110383;1279;8040;-72
2021/12/11 09:37:31;;;;;;;;;;;;;;;;;;110445;1276;9690;-72
2021/12/11 09:40:06;;;;;;;;;;;;;;;;;;110791;1277;8025;-72
2021/12/11 09:42:33;;;;;;;;;;;;;;;;;;110438;1277;8204;-72
2021/12/11 09:45:07;;;;;;;;;;;;;;;;;;110815;1275;9716;-72
2021/12/11 09:47:40;;;;;;;;;;;;;;;;;;110775;1277;8838;-72
2021/12/11 09:50:13;;;;;;;;;;;;;;;;;;110416;1279;8787;-71
2021/12/11 09:52:45;;;;;;;;;;;;;;;;;;110806;1277;9705;-71
2021/12/11 09:55:20;;;;;;;;;;;;;;;;;;110836;1277;8956;-72
2021/12/11 09:57:50;;;;;;;;;;;;;;;;;;110791;1277;9718;-71
2021/12/11 10:00:38;;;;;;;;;;;;;;;;;;110211;1279;9705;-73
2021/12/11 10:03:08;;;;;;;;;;;;;;;;;;110440;1277;8801;-73
2021/12/11 10:05:43;;;;;;;;;;;;;;;;;;110820;1277;9698;-72
2021/12/11 10:08:37;;;;;;;;;;;;;;;;;;110498;1277;8915;-71
2021/12/11 10:11:24;;;;;;;;;;;;;;;;;;110773;1277;8000;-71
2021/12/11 10:13:59;;;;;;;;;;;;;;;;;;110398;1277;10124;-73
2021/12/11 10:16:47;;;;;;;;;;;;;;;;;;110765;1277;9713;-72
2021/12/11 10:19:20;;;;;;;;;;;;;;;;;;110485;1276;7979;-73
2021/12/11 10:22:10;;;;;;;;;;;;;;;;;;110222;1278;8997;-71
2021/12/11 10:24:39;;;;;;;;;;;;;;;;;;110485;1279;8883;-71
2021/12/11 10:27:09;;;;;;;;;;;;;;;;;;110406;1279;9703;-71
2021/12/11 10:29:40;;;;;;;;;;;;;;;;;;110468;1276;7990;-71
2021/12/11 10:32:18;;;;;;;;;;;;;;;;;;110521;1278;9552;-73
2021/12/11 10:34:50;;;;;;;;;;;;;;;;;;110182;1278;9040;-72
2021/12/11 10:37:21;;;;;;;;;;;;;;;;;;110483;1276;9700;-71
2021/12/11 10:39:52;;;;;;;;;;;;;;;;;;110423;1279;8331;-71
2021/12/11 10:42:21;;;;;;;;;;;;;;;;;;110386;1276;8899;-72
2021/12/11 10:44:52;;;;;;;;;;;;;;;;;;110467;1279;9694;-71
2021/12/11 10:47:25;;;;;;;;;;;;;;;;;;110609;1276;9299;-81
2021/12/11 10:50:29;;;;;;;;;;;;;;;;;;110558;1277;9700;-71
2021/12/11 10:52:59;;;;;;;;;;;;;;;;;;110952;1272;8002;-73
2021/12/11 10:55:30;;;;;;;;;;;;;;;;;;110983;1274;8680;-75
2021/12/11 10:58:01;;;;;;;;;;;;;;;;;;110565;1277;7983;-74
2021/12/11 11:00:33;;;;;;;;;;;;;;;;;;110477;1278;8943;-75
2021/12/11 11:03:08;;;;;;;;;;;;;;;;;;110451;1279;9690;-76
2021/12/11 11:05:40;;;;;;;;;;;;;;;;;;110807;1276;8924;-76
2021/12/11 11:08:09;;;;;;;;;;;;;;;;;;110831;1276;9701;-76
2021/12/11 11:10:41;;;;;;;;;;;;;;;;;;110210;1277;9067;-78
2021/12/11 11:13:12;;;;;;;;;;;;;;;;;;110400;1279;9756;-79
2021/12/11 11:15:41;;;;;;;;;;;;;;;;;;110262;1279;9685;-77
2021/12/11 11:18:12;;;;;;;;;;;;;;;;;;110227;1276;8006;-78
2021/12/11 11:20:45;;;;;;;;;;;;;;;;;;110235;1276;9781;-78
2021/12/11 11:23:15;;;;;;;;;;;;;;;;;;110294;1278;7978;-79
2021/12/11 11:25:48;;;;;;;;;;;;;;;;;;110297;1278;9200;-78
2021/12/11 11:28:18;;;;;;;;;;;;;;;;;;110449;1279;9697;-78
2021/12/11 11:30:54;;;;;;;;;;;;;;;;;;110276;1281;8704;-79
2021/12/11 11:33:24;;;;;;;;;;;;;;;;;;110333;1276;8791;-78
2021/12/11 11:35:53;;;;;;;;;;;;;;;;;;110199;1277;9790;-77
2021/12/11 11:38:26;;;;;;;;;;;;;;;;;;110177;1279;8362;-78
2021/12/11 11:41:20;;;;;;;;;;;;;;;;;;110346;1278;9713;-78
2021/12/11 11:43:49;;;;;;;;;;;;;;;;;;110146;1281;8425;-79
2021/12/11 11:46:24;;;;;;;;;;;;;;;;;;110298;1281;8961;-77
2021/12/11 11:48:55;;;;;;;;;;;;;;;;;;110170;1279;8836;-77
2021/12/11 11:51:29;;;;;;;;;;;;;;;;;;110328;1281;8401;-77
2021/12/11 11:54:02;;;;;;;;;;;;;;;;;;110319;1281;8323;-78
2021/12/11 11:56:39;;;;;;;;;;;;;;;;;;110101;1281;8824;-79
2021/12/11 11:59:11;;;;;;;;;;;;;;;;;;110240;1279;9133;-81
2021/12/11 12:01:46;;;;;;;;;;;;;;;;;;110238;1279;8828;-84
2021/12/11 12:04:17;;;;;;;;;;;;;;;;;;110259;1279;8808;-79
2021/12/11 12:06:49;;;;;;;;;;;;;;;;;;110484;1279;9711;-78
2021/12/11 12:09:17;;;;;;;;;;;;;;;;;;110455;1279;9709;-80
2021/12/11 12:11:49;;;;;;;;;;;;;;;;;;110374;1277;8161;-80
2021/12/11 12:14:38;;;;;;;;;;;;;;;;;;110235;1278;8508;-82
2021/12/11 12:17:09;;;;;;;;;;;;;;;;;;110288;1277;9756;-78
2021/12/11 12:19:37;;;;;;;;;;;;;;;;;;110262;1277;9724;-78
2021/12/11 12:22:24;;;;;;;;;;;;;;;;;;110779;1277;8615;-75
2021/12/11 12:24:54;;;;;;;;;;;;;;;;;;110781;1277;9768;-77
2021/12/11 12:27:25;;;;;;;;;;;;;;;;;;110824;1275;9688;-77
2021/12/11 12:30:04;;;;;;;;;;;;;;;;;;110434;1277;8142;-81
2021/12/11 12:32:36;;;;;;;;;;;;;;;;;;110370;1279;8119;-82
2021/12/11 12:35:09;;;;;;;;;;;;;;;;;;110373;1278;9747;-78
2021/12/11 12:37:40;;;;;;;;;;;;;;;;;;110438;1277;9699;-77
2021/12/11 12:40:22;;;;;;;;;;;;;;;;;;110153;1277;190833;-79
2021/12/11 12:42:54;;;;;;;;;;;;;;;;;;110301;1277;8380;-79
2021/12/11 12:45:22;;;;;;;;;;;;;;;;;;110525;1276;9686;-78
2021/12/11 12:47:56;;;;;;;;;;;;;;;;;;110632;1277;9583;-79
2021/12/11 12:50:32;;;;;;;;;;;;;;;;;;110183;1279;8342;-80
2021/12/11 12:53:00;;;;;;;;;;;;;;;;;;110687;1277;9692;-79
2021/12/11 12:55:53;;;;;;;;;;;;;;;;;;110587;1276;8001;-84
2021/12/11 12:58:28;;;;;;;;;;;;;;;;;;110422;1276;8391;-80
2021/12/11 13:01:04;;;;;;;;;;;;;;;;;;110226;1279;8099;-79
2021/12/11 13:03:34;;;;;;;;;;;;;;;;;;110765;1274;7977;-81
2021/12/11 13:06:09;;;;;;;;;;;;;;;;;;110276;1277;9255;-78
2021/12/11 13:08:49;;;;;;;;;;;;;;;;;;110541;1277;9687;-83
2021/12/11 13:11:23;;;;;;;;;;;;;;;;;;110479;1278;9729;-81
2021/12/11 13:13:53;;;;;;;;;;;;;;;;;;110202;1279;9703;-77
2021/12/11 13:16:25;;;;;;;;;;;;;;;;;;110790;1277;9694;-78
2021/12/11 13:18:57;;;;;;;;;;;;;;;;;;110473;1276;8792;-78
2021/12/11 13:21:31;;;;;;;;;;;;;;;;;;110281;1276;9814;-78
2021/12/11 13:24:01;;;;;;;;;;;;;;;;;;110507;1276;7975;-77
2021/12/11 13:26:31;;;;;;;;;;;;;;;;;;110761;1277;8773;-78
2021/12/11 13:29:01;;;;;;;;;;;;;;;;;;110235;1279;9705;-77
2021/12/11 13:31:32;;;;;;;;;;;;;;;;;;110390;1278;8011;-78
2021/12/11 13:34:02;;;;;;;;;;;;;;;;;;110392;1276;8054;-77
2021/12/11 13:36:30;;;;;;;;;;;;;;;;;;110398;1276;9703;-77
2021/12/11 13:38:59;;;;;;;;;;;;;;;;;;110239;1279;8925;-77
2021/12/11 13:41:33;;;;;;;;;;;;;;;;;;110588;1276;8033;-74
2021/12/11 13:44:18;;;;;;;;;;;;;;;;;;110428;1279;8055;-76
2021/12/11 13:46:47;;;;;;;;;;;;;;;;;;110357;1279;9252;-77
2021/12/11 13:49:16;;;;;;;;;;;;;;;;;;110251;1277;8954;-77
2021/12/11 13:51:46;;;;;;;;;;;;;;;;;;110428;1277;9688;-76
2021/12/11 13:54:15;;;;;;;;;;;;;;;;;;110798;1275;8018;-77
2021/12/11 13:56:46;;;;;;;;;;;;;;;;;;110764;1277;8923;-77
2021/12/11 13:59:26;;;;;;;;;;;;;;;;;;110472;1277;8135;-76
2021/12/11 14:01:59;;;;;;;;;;;;;;;;;;110457;1277;8024;-75
2021/12/11 14:04:29;;;;;;;;;;;;;;;;;;110527;1277;8368;-75
2021/12/11 14:07:10;;;;;;;;;;;;;;;;;;110790;1277;8957;-77
2021/12/11 14:09:59;;;;;;;;;;;;;;;;;;110417;1279;7980;-75
2021/12/11 14:12:31;;;;;;;;;;;;;;;;;;110204;1279;8771;-77
2021/12/11 14:15:00;;;;;;;;;;;;;;;;;;110192;1279;8007;-76
2021/12/11 14:17:28;;;;;;;;;;;;;;;;;;110538;1276;9694;-77
2021/12/11 14:19:59;;;;;;;;;;;;;;;;;;110482;1276;8944;-77
2021/12/11 14:22:34;;;;;;;;;;;;;;;;;;110519;1278;8078;-79
2021/12/11 14:25:10;;;;;;;;;;;;;;;;;;110488;1278;9686;-79
2021/12/11 14:27:40;;;;;;;;;;;;;;;;;;110489;1277;8655;-76
2021/12/11 14:30:10;;;;;;;;;;;;;;;;;;110258;1277;8383;-76
2021/12/11 14:32:43;;;;;;;;;;;;;;;;;;110247;1277;9707;-76
2021/12/11 14:35:14;;;;;;;;;;;;;;;;;;110472;1277;8960;-78
2021/12/11 14:37:44;;;;;;;;;;;;;;;;;;110543;1277;8976;-77
2021/12/11 14:40:18;;;;;;;;;;;;;;;;;;110438;1277;9700;-78
2021/12/11 14:42:48;;;;;;;;;;;;;;;;;;110286;1277;9701;-79
2021/12/11 14:45:20;;;;;;;;;;;;;;;;;;110554;1276;8920;-75
2021/12/11 14:47:51;;;;;;;;;;;;;;;;;;110448;1277;9690;-78
2021/12/11 14:50:24;;;;;;;;;;;;;;;;;;110765;1277;8923;-79
2021/12/11 14:52:52;;;;;;;;;;;;;;;;;;110545;1277;9690;-79
2021/12/11 14:55:23;;;;;;;;;;;;;;;;;;110469;1277;8369;-79
2021/12/11 14:57:51;;;;;;;;;;;;;;;;;;110777;1276;8996;-79
2021/12/11 15:00:26;;;;;;;;;;;;;;;;;;110407;1279;9697;-77
2021/12/11 15:02:54;;;;;;;;;;;;;;;;;;110400;1277;9231;-79
2021/12/11 15:05:26;;;;;;;;;;;;;;;;;;110595;1277;7959;-78
2021/12/11 15:08:00;;;;;;;;;;;;;;;;;;110559;1277;8733;-80
2021/12/11 15:10:33;;;;;;;;;;;;;;;;;;110466;1277;8795;-83
2021/12/11 15:13:23;;;;;;;;;;;;;;;;;;110610;1276;7996;-83
2021/12/11 15:15:53;;;;;;;;;;;;;;;;;;110817;1276;9689;-83
2021/12/11 15:18:22;;;;;;;;;;;;;;;;;;110810;1276;9701;-80
2021/12/11 15:20:54;;;;;;;;;;;;;;;;;;110947;1276;9803;-81
2021/12/11 15:23:23;;;;;;;;;;;;;;;;;;110785;1276;9709;-80
2021/12/11 15:25:51;;;;;;;;;;;;;;;;;;110550;1276;9694;-79
2021/12/11 15:28:19;;;;;;;;;;;;;;;;;;110533;1276;7963;-79
2021/12/11 15:30:50;;;;;;;;;;;;;;;;;;110813;1277;9732;-78
2021/12/11 15:33:38;;;;;;;;;;;;;;;;;;110462;1277;8552;-80
2021/12/11 15:36:08;;;;;;;;;;;;;;;;;;110790;1275;8775;-81
2021/12/11 15:38:36;;;;;;;;;;;;;;;;;;110435;1276;9692;-78
2021/12/11 15:41:05;;;;;;;;;;;;;;;;;;110798;1274;8366;-76
2021/12/11 15:43:35;;;;;;;;;;;;;;;;;;110708;1277;8804;-77
2021/12/11 15:46:06;;;;;;;;;;;;;;;;;;110743;1275;9868;-76
2021/12/11 15:48:39;;;;;;;;;;;;;;;;;;110808;1275;8030;-77
2021/12/11 15:51:07;;;;;;;;;;;;;;;;;;110487;1278;8362;-76
2021/12/11 15:53:35;;;;;;;;;;;;;;;;;;110313;1277;9018;-76
2021/12/11 15:56:08;;;;;;;;;;;;;;;;;;110387;1279;8383;-76
2021/12/11 15:58:38;;;;;;;;;;;;;;;;;;110721;1277;9691;-76
2021/12/11 16:01:09;;;;;;;;;;;;;;;;;;110478;1277;8924;-77
2021/12/11 16:03:44;;;;;;;;;;;;;;;;;;110314;1279;9375;-75
2021/12/11 16:06:17;;;;;;;;;;;;;;;;;;110980;1275;8014;-76
2021/12/11 16:08:49;;;;;;;;;;;;;;;;;;110952;1276;8759;-77
2021/12/11 16:11:18;;;;;;;;;;;;;;;;;;110956;1276;8014;-76
2021/12/11 16:13:50;;;;;;;;;;;;;;;;;;110827;1275;9998;-76
2021/12/11 16:16:19;;;;;;;;;;;;;;;;;;110925;1276;9692;-78
2021/12/11 16:18:47;;;;;;;;;;;;;;;;;;110952;1275;8376;-78
2021/12/11 16:21:16;;;;;;;;;;;;;;;;;;110448;1276;8952;-76
2021/12/11 16:23:55;;;;;;;;;;;;;;;;;;110440;1278;8964;-79
2021/12/11 16:26:29;;;;;;;;;;;;;;;;;;110789;1277;8075;-78
2021/12/11 16:28:58;;;;;;;;;;;;;;;;;;110671;1276;7985;-77
2021/12/11 16:31:29;;;;;;;;;;;;;;;;;;110954;1276;9713;-78
2021/12/11 16:33:58;;;;;;;;;;;;;;;;;;110707;1274;8369;-76
2021/12/11 16:36:45;;;;;;;;;;;;;;;;;;110197;1276;8029;-77
2021/12/11 16:39:15;;;;;;;;;;;;;;;;;;110235;1277;9074;-78
2021/12/11 16:41:46;;;;;;;;;;;;;;;;;;110355;1276;9801;-78
2021/12/11 16:44:17;;;;;;;;;;;;;;;;;;110510;1276;7986;-76
2021/12/11 16:46:53;;;;;;;;;;;;;;;;;;110329;1275;8784;-80
2021/12/11 16:49:23;;;;;;;;;;;;;;;;;;110846;1276;8018;-79
2021/12/11 16:51:56;;;;;;;;;;;;;;;;;;110279;1277;9692;-81
2021/12/11 16:54:28;;;;;;;;;;;;;;;;;;110818;1277;8924;-81
2021/12/11 16:56:59;;;;;;;;;;;;;;;;;;110463;1277;8062;-77
2021/12/11 16:59:27;;;;;;;;;;;;;;;;;;110808;1277;9710;-77
2021/12/11 17:01:55;;;;;;;;;;;;;;;;;;110762;1275;7951;-79
2021/12/11 17:04:25;;;;;;;;;;;;;;;;;;110759;1277;9453;-77
2021/12/11 17:06:56;;;;;;;;;;;;;;;;;;110751;1277;9801;-81
2021/12/11 17:09:29;;;;;;;;;;;;;;;;;;110425;1278;8371;-77
2021/12/11 17:11:58;;;;;;;;;;;;;;;;;;110528;1278;10213;-77
2021/12/11 17:14:27;;;;;;;;;;;;;;;;;;110588;1277;8343;-77
2021/12/11 17:16:55;;;;;;;;;;;;;;;;;;110568;1279;8011;-77
2021/12/11 17:19:24;;;;;;;;;;;;;;;;;;110495;1276;8933;-76
2021/12/11 17:21:55;;;;;;;;;;;;;;;;;;110568;1276;9679;-77
2021/12/11 17:24:26;;;;;;;;;;;;;;;;;;110520;1277;8022;-77
2021/12/11 17:26:55;;;;;;;;;;;;;;;;;;110405;1277;9705;-78
2021/12/11 17:29:26;;;;;;;;;;;;;;;;;;110561;1276;9690;-80
2021/12/11 17:31:55;;;;;;;;;;;;;;;;;;110601;1277;9703;-77
2021/12/11 17:34:25;;;;;;;;;;;;;;;;;;110564;1277;8374;-77
2021/12/11 17:36:55;;;;;;;;;;;;;;;;;;110246;1279;8927;-77
2021/12/11 17:39:25;;;;;;;;;;;;;;;;;;110563;1277;9694;-77